Time;durP1;ratioP1;P1;durP2;ratioP2;P2;SDS_P1;SDS_P2;PMS_P1;PMS_P2;Temp;Humidity;BMP_temperature;BMP_pressure;BME280_temperature;BME280_humidity;BME280_pressure;Samples;Min_cycle;Max_cycle;Signal;HPM_P1;HPM_P2
2021/08/10 00:01:41;;;;;;;7.43;4.18;;;;;;;15.60;84.36;101482.31;10454533;28;20041;-66
2021/08/10 00:06:44;;;;;;;4.82;4.18;;;;;;;15.42;84.15;101480.91;10455520;28;20049;-64
2021/08/10 00:11:46;;;;;;;4.32;3.85;;;;;;;15.37;85.60;101475.09;10455329;28;20044;-66
2021/08/10 00:16:48;;;;;;;4.75;3.58;;;;;;;15.45;85.12;101472.81;10456379;28;20053;-66
2021/08/10 00:21:50;;;;;;;5.10;3.45;;;;;;;15.31;84.54;101470.22;10462693;28;20052;-66
2021/08/10 00:26:53;;;;;;;6.32;4.50;;;;;;;15.36;84.30;101476.88;10462290;28;20049;-66
2021/08/10 00:31:55;;;;;;;5.95;4.28;;;;;;;15.28;85.08;101470.44;10462192;28;20056;-65
2021/08/10 00:36:58;;;;;;;5.75;4.45;;;;;;;15.45;84.66;101458.75;10460758;28;20045;-67
2021/08/10 00:42:01;;;;;;;4.85;4.00;;;;;;;15.31;85.91;101467.59;10445016;28;20056;-66
2021/08/10 00:47:04;;;;;;;7.97;3.90;;;;;;;15.57;84.54;101469.31;10461270;28;20481;-66
2021/08/10 00:52:07;;;;;;;7.70;4.28;;;;;;;15.41;85.65;101469.50;10460774;28;20049;-66
2021/08/10 00:57:09;;;;;;;6.00;4.60;;;;;;;15.50;84.88;101472.47;10460977;28;20051;-68
2021/08/10 01:02:12;;;;;;;5.45;4.15;;;;;;;15.54;85.21;101463.41;10462472;28;20049;-66
2021/08/10 01:07:21;;;;;;;6.88;4.13;;;;;;;15.64;84.47;101459.19;10459914;28;20139;-68
2021/08/10 01:12:30;;;;;;;11.23;4.07;;;;;;;15.50;84.27;101456.63;10442786;28;20045;-67
2021/08/10 01:17:41;;;;;;;6.97;4.38;;;;;;;15.37;84.28;101461.91;10459613;28;20060;-67
2021/08/10 01:22:50;;;;;;;8.32;3.88;;;;;;;15.57;84.94;101471.13;10459562;28;20048;-69
2021/08/10 01:28:21;;;;;;;4.75;4.03;;;;;;;15.75;82.77;101461.97;10457809;28;20045;-66
2021/08/10 01:33:23;;;;;;;7.30;5.18;;;;;;;15.39;84.43;101450.28;10459568;28;20045;-67
2021/08/10 01:38:26;;;;;;;7.53;4.05;;;;;;;15.52;84.16;101449.47;10458274;28;20052;-65
2021/08/10 01:43:29;;;;;;;8.65;5.50;;;;;;;15.26;85.24;101449.44;10459485;28;20055;-65
2021/08/10 01:48:33;;;;;;;8.77;4.57;;;;;;;15.44;84.56;101452.63;10457942;28;20053;-67
2021/08/10 01:53:37;;;;;;;5.10;4.60;;;;;;;15.29;84.39;101461.59;10457490;28;20512;-67
2021/08/10 01:58:40;;;;;;;6.35;4.22;;;;;;;15.53;83.15;101452.03;10457373;28;20049;-67
2021/08/10 02:03:44;;;;;;;6.72;4.45;;;;;;;15.57;83.33;101458.78;10457461;28;20052;-67
2021/08/10 02:08:48;;;;;;;14.40;6.65;;;;;;;15.49;83.52;101471.63;10457313;28;20564;-67
2021/08/10 02:13:51;;;;;;;8.43;4.60;;;;;;;15.41;84.41;101453.66;10456942;28;20044;-67
2021/08/10 02:18:54;;;;;;;8.35;5.13;;;;;;;15.67;83.07;101464.28;10456597;28;20053;-68
2021/08/10 02:24:02;;;;;;;9.27;5.22;;;;;;;15.79;82.14;101444.97;10456679;28;20055;-66
2021/08/10 02:29:05;;;;;;;7.75;5.20;;;;;;;15.31;84.22;101459.69;10456316;28;20120;-67
2021/08/10 02:34:08;;;;;;;7.57;4.82;;;;;;;15.33;84.37;101460.41;10456538;28;20056;-67
2021/08/10 02:39:11;;;;;;;6.85;4.82;;;;;;;15.31;83.65;101457.88;10455439;28;20106;-68
2021/08/10 02:44:14;;;;;;;6.82;5.10;;;;;;;15.52;83.70;101454.75;10456324;28;20041;-67
2021/08/10 02:49:17;;;;;;;9.35;4.47;;;;;;;15.61;83.13;101454.13;10455584;28;20044;-67
2021/08/10 02:54:19;;;;;;;5.60;4.45;;;;;;;15.31;83.33;101454.41;10455389;28;20067;-68
2021/08/10 02:59:32;;;;;;;8.07;4.72;;;;;;;15.31;82.90;101447.31;10455271;28;20539;-70
2021/08/10 03:04:37;;;;;;;10.45;4.72;;;;;;;15.43;82.47;101445.66;10455342;28;20061;-67
2021/08/10 03:09:40;;;;;;;6.43;3.80;;;;;;;15.36;82.91;101447.03;10455426;28;20041;-66
2021/08/10 03:14:42;;;;;;;7.90;5.50;;;;;;;15.07;84.02;101460.34;10456498;28;20044;-69
2021/08/10 03:19:45;;;;;;;11.15;5.30;;;;;;;15.11;83.91;101450.44;10455049;28;20139;-70
2021/08/10 03:24:49;;;;;;;9.10;6.28;;;;;;;15.08;83.65;101466.47;10456152;28;20044;-65
2021/08/10 03:29:53;;;;;;;10.05;5.20;;;;;;;15.17;83.64;101458.81;10454922;28;20049;-69
2021/08/10 03:34:56;;;;;;;8.68;5.78;;;;;;;15.02;83.42;101463.28;10454811;28;20055;-66
2021/08/10 03:40:00;;;;;;;9.75;6.20;;;;;;;14.95;83.86;101472.56;10437935;28;20053;-68
2021/08/10 03:45:03;;;;;;;12.05;5.97;;;;;;;14.85;84.71;101482.00;10438679;28;20052;-66
2021/08/10 03:50:07;;;;;;;9.48;6.32;;;;;;;14.79;84.48;101475.34;10455502;28;20048;-66
2021/08/10 03:55:09;;;;;;;8.43;4.95;;;;;;;14.89;84.71;101467.66;10444355;28;20512;-68
2021/08/10 04:00:13;;;;;;;11.00;5.68;;;;;;;14.86;84.32;101474.00;10462176;28;20429;-67
2021/08/10 04:05:15;;;;;;;7.72;4.85;;;;;;;14.73;85.34;101470.47;10463427;28;20060;-67
2021/08/10 04:10:18;;;;;;;10.05;4.50;;;;;;;14.91;83.55;101457.91;10462092;28;20052;-68
2021/08/10 04:15:20;;;;;;;6.95;5.00;;;;;;;14.89;83.51;101466.84;10462717;28;20049;-67
2021/08/10 04:20:23;;;;;;;9.55;4.70;;;;;;;14.82;84.10;101463.75;10444892;28;20489;-65
2021/08/10 04:25:25;;;;;;;7.20;5.13;;;;;;;14.80;84.19;101468.28;10461299;28;20053;-67
2021/08/10 04:30:27;;;;;;;10.02;4.65;;;;;;;14.76;84.03;101477.31;10462153;28;20053;-67
2021/08/10 04:35:30;;;;;;;8.48;4.47;;;;;;;14.85;84.10;101480.22;10444740;28;20150;-67
2021/08/10 04:40:32;;;;;;;8.35;4.25;;;;;;;14.80;83.68;101469.13;10444160;28;20053;-68
2021/08/10 04:45:35;;;;;;;5.32;3.80;;;;;;;14.59;85.02;101473.13;10461553;28;20049;-66
2021/08/10 04:50:37;;;;;;;5.28;4.40;;;;;;;14.62;84.92;101459.75;10460251;28;20049;-68
2021/08/10 04:55:39;;;;;;;4.45;3.50;;;;;;;14.74;84.00;101476.56;10461705;28;20405;-68
2021/08/10 05:00:42;;;;;;;5.18;4.45;;;;;;;14.48;85.32;101479.06;10461089;28;20057;-68
2021/08/10 05:05:44;;;;;;;8.25;4.50;;;;;;;14.53;84.42;101489.31;10460717;28;20049;-67
2021/08/10 05:10:47;;;;;;;8.30;4.80;;;;;;;14.85;83.82;101493.41;10460729;28;20045;-67
2021/08/10 05:15:50;;;;;;;7.13;5.15;;;;;;;14.62;84.67;101484.31;10460455;28;20123;-65
2021/08/10 05:20:52;;;;;;;7.07;5.47;;;;;;;14.66;84.14;101487.63;10460220;28;20489;-67
2021/08/10 05:25:54;;;;;;;4.20;3.50;;;;;;;15.01;83.77;101501.19;10458850;28;20049;-68
2021/08/10 05:30:57;;;;;;;8.18;5.78;;;;;;;14.81;83.86;101496.31;10459923;28;20049;-67
2021/08/10 05:35:59;;;;;;;8.63;5.47;;;;;;;14.77;84.64;101490.41;10460118;28;20051;-66
2021/08/10 05:41:02;;;;;;;8.68;5.43;;;;;;;14.78;83.47;101504.44;10458562;28;20049;-65
2021/08/10 05:46:04;;;;;;;14.82;5.85;;;;;;;15.39;81.91;101503.06;10456147;28;20409;-66
2021/08/10 05:51:06;;;;;;;10.70;4.75;;;;;;;15.28;82.88;101502.09;10459157;28;20044;-67
2021/08/10 05:56:09;;;;;;;6.18;4.40;;;;;;;15.58;82.03;101502.69;10458998;28;20111;-67
2021/08/10 06:01:11;;;;;;;6.40;3.88;;;;;;;15.42;82.01;101512.59;10458887;28;20055;-69
2021/08/10 06:06:13;;;;;;;7.78;5.10;;;;;;;15.39;81.99;101515.41;10459080;28;20055;-68
2021/08/10 06:11:16;;;;;;;6.28;5.07;;;;;;;15.58;80.33;101507.09;10458428;28;20048;-68
2021/08/10 06:16:18;;;;;;;7.32;5.00;;;;;;;15.42;81.54;101528.41;10456222;28;20550;-69
2021/08/10 06:21:21;;;;;;;5.35;4.78;;;;;;;15.63;80.87;101522.66;10457016;28;20102;-69
2021/08/10 06:26:23;;;;;;;9.52;6.28;;;;;;;15.61;81.57;101520.09;10456480;28;20055;-68
2021/08/10 06:31:26;;;;;;;10.50;5.97;;;;;;;15.79;81.63;101515.41;10457458;28;20511;-67
2021/08/10 06:36:28;;;;;;;7.43;4.95;;;;;;;16.29;79.27;101526.06;10456375;28;20053;-64
2021/08/10 06:41:31;;;;;;;6.78;5.10;;;;;;;16.16;80.13;101523.44;10456643;28;20052;-69
2021/08/10 06:46:33;;;;;;;8.75;5.18;;;;;;;16.28;79.51;101527.03;10439880;28;20063;-65
2021/08/10 06:51:36;;;;;;;7.63;5.38;;;;;;;16.17;79.98;101525.13;10455433;28;20057;-66
2021/08/10 06:56:38;;;;;;;7.38;4.20;;;;;;;16.15;79.24;101532.31;10457389;28;20072;-68
2021/08/10 07:01:41;;;;;;;9.02;5.63;;;;;;;16.15;80.42;101538.47;10456681;28;20051;-67
2021/08/10 07:06:47;;;;;;;7.43;6.20;;;;;;;16.27;79.90;101533.25;10454899;28;20475;-67
2021/08/10 07:11:49;;;;;;;8.82;5.68;;;;;;;16.09;80.42;101543.31;10455622;28;20087;-68
2021/08/10 07:16:52;;;;;;;8.73;6.35;;;;;;;16.39;81.08;101532.41;10455195;28;20056;-67
2021/08/10 07:21:54;;;;;;;9.70;5.97;;;;;;;16.85;79.03;101536.25;10456660;28;20049;-66
2021/08/10 07:26:57;;;;;;;10.52;6.32;;;;;;;17.03;79.50;101534.91;10459490;28;20060;-67
2021/08/10 07:32:02;;;;;;;7.72;5.55;;;;;;;17.17;79.18;101538.34;10463309;28;20459;-65
2021/08/10 07:37:05;;;;;;;7.18;5.32;;;;;;;16.93;78.82;101535.69;10463006;28;20072;-66
2021/08/10 07:42:07;;;;;;;9.07;5.97;;;;;;;16.62;78.43;101535.22;10464239;28;20060;-66
2021/08/10 07:47:09;;;;;;;7.10;4.57;;;;;;;17.25;77.24;101546.56;10462650;28;20049;-68
2021/08/10 07:52:12;;;;;;;7.05;4.40;;;;;;;17.57;77.41;101543.34;10462502;28;20049;-68
2021/08/10 07:57:14;;;;;;;6.68;4.30;;;;;;;17.26;76.54;101543.81;10462928;28;20091;-65
2021/08/10 08:02:16;;;;;;;9.25;4.90;;;;;;;17.09;77.19;101539.75;10463576;28;20049;-67
2021/08/10 08:07:19;;;;;;;6.30;4.07;;;;;;;17.68;75.18;101543.34;10445400;28;20485;-66
2021/08/10 08:12:21;;;;;;;9.55;4.57;;;;;;;19.06;70.19;101537.03;10463255;28;20048;-67
2021/08/10 08:17:24;;;;;;;6.07;3.97;;;;;;;18.97;71.45;101534.28;10461665;28;20045;-66
2021/08/10 08:22:46;;;;;;;9.05;4.45;;;;;;;19.07;69.29;101541.34;10462691;28;20053;-66
2021/08/10 08:27:49;;;;;;;6.50;4.60;;;;;;;18.22;69.96;101535.75;10461920;28;20091;-67
2021/08/10 08:32:51;;;;;;;6.35;3.60;;;;;;;19.60;68.39;101537.88;10462568;28;20041;-68
2021/08/10 08:37:54;;;;;;;6.28;4.18;;;;;;;19.67;66.64;101532.91;10461704;28;20049;-68
2021/08/10 08:42:57;;;;;;;3.90;3.28;;;;;;;19.18;69.63;101548.44;10462225;28;20060;-67
2021/08/10 08:48:04;;;;;;;5.82;4.15;;;;;;;19.48;69.16;101549.50;10460209;28;20049;-66
2021/08/10 08:53:07;;;;;;;7.22;4.18;;;;;;;20.34;65.39;101528.09;10461519;28;20084;-68
2021/08/10 08:58:10;;;;;;;4.93;3.65;;;;;;;20.30;68.36;101535.50;10459624;28;20536;-67
2021/08/10 09:03:13;;;;;;;8.85;3.35;;;;;;;19.80;68.43;101533.56;10459964;28;20045;-67
2021/08/10 09:08:33;;;;;;;11.52;4.60;;;;;;;19.15;70.50;101540.72;10460756;28;20087;-66
2021/08/10 09:13:41;;;;;;;5.43;3.70;;;;;;;20.81;67.27;101532.88;10460507;28;20049;-68
2021/08/10 09:18:43;;;;;;;7.95;4.47;;;;;;;20.76;66.79;101530.63;10460416;28;20111;-67
2021/08/10 09:23:53;;;;;;;7.10;4.32;;;;;;;20.81;65.21;101539.03;10460287;28;20060;-66
2021/08/10 09:28:58;;;;;;;5.82;3.33;;;;;;;20.91;64.27;101526.59;10460285;28;20051;-67
2021/08/10 09:34:04;;;;;;;6.28;3.10;;;;;;;21.75;63.34;101527.00;10459930;28;20401;-67
2021/08/10 09:39:06;;;;;;;7.60;3.40;;;;;;;21.18;65.14;101529.56;10459582;28;20061;-67
2021/08/10 09:44:13;;;;;;;7.13;2.88;;;;;;;21.55;62.41;101532.38;10459602;28;20048;-66
2021/08/10 09:49:17;;;;;;;5.95;2.97;;;;;;;20.68;65.51;101541.09;10457993;28;20441;-66
2021/08/10 09:54:21;;;;;;;6.47;2.90;;;;;;;20.51;66.41;101535.44;10459279;28;20053;-67
2021/08/10 09:59:28;;;;;;;5.25;2.28;;;;;;;20.38;66.35;101542.81;10441119;28;20052;-66
2021/08/10 10:04:32;;;;;;;5.68;2.58;;;;;;;22.40;59.95;101532.44;10457594;28;20052;-67
2021/08/10 10:09:34;;;;;;;6.18;2.53;;;;;;;23.03;57.40;101536.13;10458331;28;20048;-68
2021/08/10 10:14:45;;;;;;;5.57;2.25;;;;;;;22.01;59.99;101517.41;10493078;28;20467;-66
2021/08/10 10:19:50;;;;;;;6.13;3.60;;;;;;;21.81;62.33;101527.28;10491355;28;20052;-65
2021/08/10 10:24:54;;;;;;;8.88;3.60;;;;;;;23.30;61.86;101524.56;10491766;28;20048;-65
2021/08/10 10:29:57;;;;;;;5.00;3.10;;;;;;;23.69;59.32;101524.22;10474345;28;20049;-67
2021/08/10 10:34:59;;;;;;;5.07;3.03;;;;;;;24.55;55.56;101509.13;10492456;28;20049;-65
2021/08/10 10:40:05;;;;;;;3.35;2.28;;;;;;;24.74;51.42;101519.53;10492640;28;20059;-67
2021/08/10 10:45:08;;;;;;;4.93;2.92;;;;;;;23.60;54.95;101517.94;10490381;28;20048;-66
2021/08/10 10:50:15;;;;;;;3.50;2.38;;;;;;;24.74;54.81;101500.81;10490149;28;20060;-67
2021/08/10 10:55:32;;;;;;;3.58;2.60;;;;;;;25.94;50.33;101502.94;10491006;28;20402;-67
2021/08/10 11:00:35;;;;;;;3.67;2.40;;;;;;;25.03;52.65;101503.03;10489589;28;20049;-67
2021/08/10 11:05:38;;;;;;;4.22;2.25;;;;;;;25.38;53.18;101494.84;10489281;28;20481;-67
2021/08/10 11:10:45;;;;;;;5.72;2.63;;;;;;;24.85;50.41;101499.66;10489099;28;20060;-64
2021/08/10 11:15:47;;;;;;;4.10;2.22;;;;;;;26.20;47.92;101489.31;10490390;28;20052;-64
2021/08/10 11:20:52;;;;;;;4.40;2.13;;;;;;;24.06;54.77;101496.38;10490550;28;20052;-66
2021/08/10 11:26:01;;;;;;;7.25;2.97;;;;;;;24.87;51.34;101496.81;10463802;28;20049;-65
2021/08/10 11:31:05;;;;;;;2.85;2.00;;;;;;;23.16;56.27;101491.22;10462439;28;20053;-66
2021/08/10 11:36:13;;;;;;;5.63;2.35;;;;;;;25.62;49.12;101494.00;10460628;28;20404;-66
2021/08/10 11:41:20;;;;;;;4.18;2.78;;;;;;;27.16;48.25;101475.66;10461928;28;20055;-65
2021/08/10 11:46:38;;;;;;;2.05;1.60;;;;;;;28.02;48.74;101469.94;10461408;28;20049;-66
2021/08/10 11:51:42;;;;;;;3.40;3.10;;;;;;;25.71;46.82;101484.09;10461407;28;20048;-63
2021/08/10 11:56:49;;;;;;;7.15;2.35;;;;;;;27.10;46.82;101471.84;10461042;28;20490;-66
2021/08/10 12:01:58;;;;;;;3.25;2.33;;;;;;;26.10;47.62;101475.28;10460936;28;20412;-67
2021/08/10 12:07:06;;;;;;;3.78;2.97;;;;;;;23.74;53.59;101479.94;10460990;28;20081;-66
2021/08/10 12:12:10;;;;;;;4.18;2.35;;;;;;;24.29;55.13;101485.91;10460534;28;20053;-65
2021/08/10 12:17:15;;;;;;;5.72;2.55;;;;;;;22.90;56.02;101481.28;10460687;28;20045;-67
2021/08/10 12:22:26;;;;;;;4.38;2.70;;;;;;;22.68;58.00;101482.56;10459241;28;20055;-65
2021/08/10 12:27:30;;;;;;;5.53;2.80;;;;;;;23.05;55.66;101470.03;10460606;28;20056;-66
2021/08/10 12:32:34;;;;;;;3.58;2.38;;;;;;;22.81;55.51;101477.69;10458541;28;20075;-67
2021/08/10 12:37:36;;;;;;;4.20;1.92;;;;;;;24.97;52.31;101468.88;10458454;28;20057;-67
2021/08/10 12:42:39;;;;;;;2.30;2.13;;;;;;;23.33;52.23;101465.47;10458575;28;20132;-65
2021/08/10 12:47:43;;;;;;;6.88;2.42;;;;;;;23.04;54.41;101463.06;10459268;28;20049;-66
2021/08/10 12:52:45;;;;;;;4.15;2.70;;;;;;;22.94;55.86;101468.47;10458814;28;20053;-67
2021/08/10 12:57:58;;;;;;;5.15;2.80;;;;;;;22.42;58.29;101466.44;10457237;28;20048;-66
2021/08/10 13:03:00;;;;;;;5.07;2.55;;;;;;;22.50;58.07;101457.69;10458478;28;20513;-66
2021/08/10 13:08:08;;;;;;;5.28;3.20;;;;;;;21.88;60.71;101456.41;10458356;28;20040;-66
2021/08/10 13:13:21;;;;;;;5.78;2.53;;;;;;;22.02;58.19;101446.25;10456862;28;20520;-67
2021/08/10 13:18:24;;;;;;;4.63;2.95;;;;;;;21.58;59.74;101454.00;10458047;28;20048;-65
2021/08/10 13:23:29;;;;;;;3.90;2.95;;;;;;;21.39;62.24;101458.34;10457871;28;20511;-65
2021/08/10 13:28:37;;;;;;;5.18;3.60;;;;;;;20.88;63.63;101462.13;10456563;28;20041;-66
2021/08/10 13:33:56;;;;;;;5.00;3.53;;;;;;;20.76;67.58;101490.69;10457550;28;20053;-64
2021/08/10 13:38:59;;;;;;;13.50;6.05;;;;;;;19.90;74.13;101522.97;10457485;28;20048;-64
2021/08/10 13:44:03;;;;;;;13.45;7.85;;;;;;;18.52;80.33;101517.44;10457307;28;20051;-63
2021/08/10 13:49:07;;;;;;;10.40;6.30;;;;;;;18.54;81.18;101536.72;10457457;28;20091;-64
2021/08/10 13:54:10;;;;;;;6.57;5.00;;;;;;;18.31;80.39;101530.59;10455941;28;20048;-64
2021/08/10 13:59:12;;;;;;;6.25;5.07;;;;;;;18.76;79.98;101513.75;10456559;28;20479;-64
2021/08/10 14:04:17;;;;;;;7.85;5.80;;;;;;;19.20;79.87;101527.06;10455631;28;20052;-64
2021/08/10 14:09:19;;;;;;;6.80;4.78;;;;;;;19.16;77.51;101529.13;10456348;28;20056;-63
2021/08/10 14:14:22;;;;;;;6.68;4.50;;;;;;;18.66;78.76;101529.59;10456568;28;20057;-67
2021/08/10 14:19:25;;;;;;;5.80;5.13;;;;;;;18.48;80.40;101526.59;10456339;28;20045;-65
2021/08/10 14:24:27;;;;;;;5.93;4.32;;;;;;;18.72;78.86;101515.00;10456053;28;20416;-66
2021/08/10 14:29:30;;;;;;;5.43;4.25;;;;;;;19.00;78.72;101516.28;10455943;28;20045;-66
2021/08/10 14:34:32;;;;;;;7.85;4.85;;;;;;;19.85;77.06;101518.06;10456051;28;20059;-67
2021/08/10 14:39:34;;;;;;;8.32;4.03;;;;;;;20.24;72.71;101514.78;10456074;28;20045;-67
2021/08/10 14:44:41;;;;;;;5.03;4.63;;;;;;;20.80;72.45;101524.06;10455886;28;20179;-66
2021/08/10 14:49:43;;;;;;;6.75;4.85;;;;;;;20.82;73.02;101522.09;10456270;28;20055;-66
2021/08/10 14:54:45;;;;;;;8.40;5.63;;;;;;;20.13;74.02;101514.84;10455489;28;20049;-67
2021/08/10 14:59:48;;;;;;;6.30;4.55;;;;;;;20.97;73.86;101515.38;10460687;28;20053;-66
2021/08/10 15:04:50;;;;;;;7.88;4.63;;;;;;;20.71;72.01;101511.56;10462048;28;20053;-68
2021/08/10 15:09:54;;;;;;;5.25;4.53;;;;;;;20.57;72.71;101502.97;10461667;28;20045;-67
2021/08/10 15:14:56;;;;;;;8.10;5.28;;;;;;;20.20;73.92;101516.00;10461634;28;20551;-66
2021/08/10 15:20:00;;;;;;;6.43;4.97;;;;;;;20.11;74.08;101517.66;10462692;28;20066;-67
2021/08/10 15:25:03;;;;;;;5.55;4.22;;;;;;;20.22;72.82;101528.19;10461257;28;20056;-68
2021/08/10 15:30:14;;;;;;;6.13;4.75;;;;;;;21.14;72.98;101521.00;10462513;28;20455;-67
2021/08/10 15:35:18;;;;;;;11.02;3.75;;;;;;;22.62;69.67;101524.03;10461858;28;20480;-66
2021/08/10 15:40:20;;;;;;;6.20;3.67;;;;;;;22.24;65.02;101520.56;10460560;28;20052;-66
2021/08/10 15:45:23;;;;;;;4.10;3.45;;;;;;;22.64;65.62;101523.88;10461451;28;20064;-68
2021/08/10 15:50:25;;;;;;;3.70;3.33;;;;;;;22.00;67.71;101525.53;10461942;28;20041;-66
2021/08/10 15:55:27;;;;;;;6.47;3.53;;;;;;;21.79;66.69;101523.09;10461276;28;20052;-67
2021/08/10 16:00:30;;;;;;;7.43;3.22;;;;;;;21.09;71.40;101523.25;10460105;28;20053;-66
2021/08/10 16:05:37;;;;;;;3.38;3.03;;;;;;;20.67;67.93;101520.81;10461015;28;20060;-66
2021/08/10 16:10:40;;;;;;;3.30;3.00;;;;;;;20.25;69.80;101520.91;10460586;28;20056;-65
2021/08/10 16:15:44;;;;;;;4.20;2.83;;;;;;;20.50;69.24;101504.47;10460319;28;20128;-67
2021/08/10 16:20:47;;;;;;;4.57;3.00;;;;;;;20.51;69.63;101508.84;10461095;28;20132;-65
2021/08/10 16:25:50;;;;;;;7.45;2.97;;;;;;;20.38;70.28;101511.72;10460281;28;20068;-66
2021/08/10 16:30:52;;;;;;;4.47;2.83;;;;;;;20.33;68.57;101513.13;10459711;28;20060;-65
2021/08/10 16:35:54;;;;;;;4.03;3.10;;;;;;;20.18;68.54;101520.63;10460192;28;20103;-65
2021/08/10 16:40:57;;;;;;;6.97;3.47;;;;;;;19.84;71.39;101518.22;10459618;28;20053;-65
2021/08/10 16:45:59;;;;;;;4.15;3.20;;;;;;;19.90;71.21;101516.81;10459047;28;20482;-65
2021/08/10 16:51:03;;;;;;;4.78;3.42;;;;;;;20.08;71.39;101519.72;10458214;28;20099;-66
2021/08/10 16:56:06;;;;;;;7.03;4.00;;;;;;;20.10;69.94;101517.78;10458240;28;20048;-65
2021/08/10 17:01:09;;;;;;;4.45;4.00;;;;;;;19.88;71.33;101513.47;10458709;28;20421;-66
2021/08/10 17:06:11;;;;;;;7.10;3.92;;;;;;;19.88;71.62;101516.97;10458560;28;20077;-67
2021/08/10 17:11:14;;;;;;;4.97;3.72;;;;;;;19.83;71.46;101511.19;10458029;28;20053;-65
2021/08/10 17:16:16;;;;;;;8.32;4.55;;;;;;;19.79;72.91;101515.94;10458911;28;20055;-65
2021/08/10 17:21:19;;;;;;;5.32;3.78;;;;;;;20.32;70.29;101517.56;10457791;28;20099;-67
2021/08/10 17:26:21;;;;;;;4.72;4.30;;;;;;;20.42;69.84;101518.47;10456706;28;20071;-67
2021/08/10 17:31:23;;;;;;;5.55;3.75;;;;;;;20.65;68.64;101518.28;10457465;28;20041;-65
2021/08/10 17:36:26;;;;;;;5.65;4.35;;;;;;;20.73;68.41;101520.28;10457814;28;20090;-64
2021/08/10 17:41:29;;;;;;;5.05;4.30;;;;;;;20.49;69.23;101512.59;10456422;28;20167;-66
2021/08/10 17:46:31;;;;;;;6.95;4.55;;;;;;;20.37;67.40;101518.00;10457138;28;20060;-64
2021/08/10 17:51:34;;;;;;;6.75;4.43;;;;;;;19.78;70.70;101518.72;10457185;28;20056;-64
2021/08/10 17:56:40;;;;;;;5.57;4.30;;;;;;;19.55;73.74;101525.94;10456604;28;20098;-65
2021/08/10 18:01:42;;;;;;;5.07;4.53;;;;;;;19.19;75.36;101526.22;10455761;28;20049;-65
2021/08/10 18:06:45;;;;;;;4.70;4.30;;;;;;;18.92;78.18;101530.16;10456554;28;20448;-65
2021/08/10 18:11:47;;;;;;;6.38;4.90;;;;;;;18.60;77.80;101530.09;10456178;28;20059;-65
2021/08/10 18:16:50;;;;;;;5.88;4.28;;;;;;;18.71;78.23;101538.03;10455294;28;20182;-65
2021/08/10 18:21:52;;;;;;;6.63;5.35;;;;;;;18.52;78.70;101530.69;10456161;28;20052;-66
2021/08/10 18:26:56;;;;;;;8.40;5.57;;;;;;;18.37;77.38;101543.38;10456056;28;20500;-65
2021/08/10 18:31:58;;;;;;;7.93;4.78;;;;;;;18.09;79.52;101543.81;10456741;28;20071;-65
2021/08/10 18:37:01;;;;;;;7.95;5.45;;;;;;;18.06;79.93;101546.72;10464438;28;20041;-65
2021/08/10 18:42:08;;;;;;;9.40;5.80;;;;;;;17.79;81.15;101545.19;10464208;28;20056;-66
2021/08/10 18:47:11;;;;;;;7.80;5.35;;;;;;;17.30;82.08;101562.97;10463921;28;20547;-67
2021/08/10 18:52:13;;;;;;;5.57;5.00;;;;;;;17.49;81.86;101566.88;10462579;28;20040;-65
2021/08/10 18:57:15;;;;;;;11.90;6.10;;;;;;;17.23;83.24;101574.94;10463421;28;20044;-67
2021/08/10 19:02:19;;;;;;;9.73;6.70;;;;;;;17.15;83.06;101580.78;10463625;28;20056;-65
2021/08/10 19:07:21;;;;;;;6.63;5.90;;;;;;;16.88;84.30;101592.41;10462233;28;20049;-68
2021/08/10 19:12:24;;;;;;;10.45;6.05;;;;;;;16.84;83.99;101587.41;10463058;28;20052;-63
2021/08/10 19:17:27;;;;;;;7.72;5.43;;;;;;;16.63;84.67;101590.63;10462369;28;20056;-63
2021/08/10 19:22:29;;;;;;;7.45;5.82;;;;;;;16.61;84.05;101591.69;10461166;28;20055;-63
2021/08/10 19:27:31;;;;;;;8.05;6.68;;;;;;;16.40;85.40;101594.88;10462517;28;20048;-62
2021/08/10 19:32:34;;;;;;;10.48;8.75;;;;;;;16.25;85.33;101611.78;10462614;28;20045;-62
2021/08/10 19:37:36;;;;;;;9.30;6.95;;;;;;;16.24;85.49;101607.44;10460764;28;20060;-63
2021/08/10 19:42:39;;;;;;;6.70;6.10;;;;;;;16.38;84.08;101617.94;10461316;28;20056;-62
2021/08/10 19:47:41;;;;;;;10.00;6.90;;;;;;;15.88;86.14;101628.31;10461920;28;20045;-62
2021/08/10 19:52:44;;;;;;;10.35;6.57;;;;;;;16.13;85.70;101624.03;10461548;28;20073;-62
2021/08/10 19:57:46;;;;;;;10.07;7.10;;;;;;;16.14;85.13;101621.28;10460004;28;20524;-62
2021/08/10 20:02:49;;;;;;;8.68;7.80;;;;;;;15.78;85.82;101635.16;10460020;28;20067;-63
2021/08/10 20:07:52;;;;;;;10.50;7.25;;;;;;;15.89;85.51;101640.59;10461274;28;20048;-62
2021/08/10 20:12:55;;;;;;;10.98;8.48;;;;;;;15.71;86.23;101639.13;10460702;28;20494;-62
2021/08/10 20:17:58;;;;;;;12.30;8.68;;;;;;;15.70;86.44;101650.63;10460823;28;20064;-62
2021/08/10 20:23:00;;;;;;;10.85;7.10;;;;;;;15.60;86.11;101648.59;10460456;28;20390;-62
2021/08/10 20:28:02;;;;;;;11.45;7.43;;;;;;;15.64;87.10;101651.06;10459826;28;20421;-63
2021/08/10 20:33:06;;;;;;;7.93;6.53;;;;;;;15.80;85.55;101659.66;10459917;28;20446;-62
2021/08/10 20:38:08;;;;;;;9.88;8.88;;;;;;;15.59;87.00;101662.75;10459726;28;20041;-62
2021/08/10 20:43:11;;;;;;;10.93;7.97;;;;;;;15.60;86.27;101666.22;10459352;28;20485;-62
2021/08/10 20:48:14;;;;;;;9.77;8.77;;;;;;;15.47;85.84;101670.63;10458184;28;20041;-62
2021/08/10 20:53:16;;;;;;;9.35;7.85;;;;;;;15.46;85.92;101671.56;10457834;28;20052;-62
2021/08/10 20:58:18;;;;;;;17.15;9.90;;;;;;;15.28;87.45;101665.66;10458133;28;20051;-62
2021/08/10 21:03:21;;;;;;;9.30;6.88;;;;;;;15.35;86.66;101678.38;10474466;28;20489;-62
2021/08/10 21:08:24;;;;;;;12.68;8.38;;;;;;;15.21;87.17;101675.75;10458637;28;20447;-62
2021/08/10 21:13:29;;;;;;;14.63;10.88;;;;;;;15.23;87.05;101668.56;10458066;28;20060;-62
2021/08/10 21:18:31;;;;;;;9.73;8.35;;;;;;;15.32;86.20;101670.63;10458044;28;20049;-63
2021/08/10 21:23:34;;;;;;;13.43;9.35;;;;;;;15.21;87.28;101681.88;10458247;28;20045;-62
2021/08/10 21:28:36;;;;;;;13.65;8.80;;;;;;;15.42;86.14;101676.19;10457723;28;20051;-62
2021/08/10 21:33:38;;;;;;;12.40;8.90;;;;;;;15.28;86.18;101679.72;10457849;28;20048;-62
2021/08/10 21:38:41;;;;;;;11.85;9.95;;;;;;;15.16;86.67;101681.31;10457311;28;20489;-62
2021/08/10 21:43:43;;;;;;;10.70;8.98;;;;;;;15.25;86.36;101685.16;10457853;28;20045;-63
2021/08/10 21:48:45;;;;;;;11.80;10.13;;;;;;;14.91;87.33;101689.91;10457123;28;20052;-62
2021/08/10 21:53:48;;;;;;;18.08;11.13;;;;;;;15.19;86.32;101693.47;10456943;28;20072;-62
2021/08/10 21:58:50;;;;;;;17.35;11.50;;;;;;;15.32;86.25;101698.81;10456661;28;20120;-62
2021/08/10 22:03:52;;;;;;;12.13;10.00;;;;;;;15.32;86.38;101704.09;10456643;28;20420;-63
2021/08/10 22:08:55;;;;;;;16.58;11.75;;;;;;;15.22;86.84;101706.47;10455377;28;20041;-63
2021/08/10 22:13:57;;;;;;;18.25;12.35;;;;;;;15.15;86.90;101711.28;10456822;28;20057;-62
2021/08/10 22:18:59;;;;;;;16.73;12.68;;;;;;;14.86;87.80;101715.69;10456048;28;20048;-62
2021/08/10 22:24:03;;;;;;;20.13;12.98;;;;;;;14.86;87.69;101713.91;10456275;28;20412;-62
2021/08/10 22:29:06;;;;;;;12.60;11.00;;;;;;;14.95;87.08;101720.41;10455442;28;20073;-62
2021/08/10 22:34:08;;;;;;;13.15;10.57;;;;;;;15.04;86.21;101719.84;10438304;28;20496;-63
2021/08/10 22:39:11;;;;;;;17.70;14.63;;;;;;;15.02;86.98;101723.53;10438258;28;20410;-62
2021/08/10 22:44:13;;;;;;;16.85;12.75;;;;;;;15.07;86.40;101724.09;10454626;28;20064;-62
2021/08/10 22:49:15;;;;;;;22.58;14.95;;;;;;;14.96;87.28;101729.16;10455820;28;20067;-62
2021/08/10 22:54:18;;;;;;;14.55;13.07;;;;;;;14.83;87.03;101731.72;10455752;28;20056;-62
2021/08/10 22:59:20;;;;;;;20.17;14.63;;;;;;;14.66;87.86;101744.13;10455452;28;20053;-62
2021/08/10 23:04:22;;;;;;;19.90;14.23;;;;;;;14.82;87.86;101741.41;10454196;28;20063;-63
2021/08/10 23:09:25;;;;;;;19.13;14.13;;;;;;;14.64;87.78;101737.22;10454426;28;20056;-62